Terminal Aerodrome Forecast
Issued by NWS

Home | Current Version | Previous Version | Text Only | Print | Product List | Glossary On
Versions: 1 2 3 4 5 6 7 8 9 10 11 12 13 14 15 16 17 18 19 20 21 22
263
FTUS43 KAPX 280522
TAFTVC
TAF
KTVC 280522Z 2806/2906 36005KT P6SM OVC007
      TEMPO 2806/2809 OVC012
     FM281200 02004KT P6SM BKN010
     FM281600 02006KT P6SM SCT025
     FM281700 01007KT P6SM SCT200=

USA.gov is the U.S. government's official web portal to all federal, state and local government web resources and services.